Time;durP1;ratioP1;P1;durP2;ratioP2;P2;SDS_P1;SDS_P2;PMS_P1;PMS_P2;Temp;Humidity;BMP_temperature;BMP_pressure;BME280_temperature;BME280_humidity;BME280_pressure;Samples;Min_cycle;Max_cycle;Signal;HPM_P1;HPM_P2
2022/08/02 00:00:11;;;;;;;6.97;1.90;;;12.90;99.90;;;;;;4948479;28;20433;-88
2022/08/02 00:02:37;;;;;;;7.97;2.03;;;12.90;99.90;;;;;;4931925;28;20046;-88
2022/08/02 00:05:03;;;;;;;4.72;1.80;;;12.80;99.90;;;;;;4931965;28;20057;-88
2022/08/02 00:07:29;;;;;;;3.90;1.70;;;12.90;99.90;;;;;;4948194;28;20042;-88
2022/08/02 00:09:55;;;;;;;11.27;2.42;;;13.50;99.90;;;;;;4946542;28;20508;-88
2022/08/02 00:12:21;;;;;;;9.52;2.20;;;12.50;99.90;;;;;;4964570;28;20051;-89
2022/08/02 00:14:47;;;;;;;5.45;1.92;;;12.90;99.90;;;;;;4946717;28;20133;-88
2022/08/02 00:17:12;;;;;;;5.93;2.33;;;12.90;99.90;;;;;;4932371;28;20150;-88
2022/08/02 00:19:38;;;;;;;12.55;3.50;;;13.80;99.90;;;;;;4931288;28;20046;-89
2022/08/02 00:22:03;;;;;;;12.32;2.78;;;12.90;99.90;;;;;;4931670;28;20127;-89
2022/08/02 00:24:29;;;;;;;6.90;2.42;;;13.00;99.90;;;;;;4964214;28;20093;-89
2022/08/02 00:26:55;;;;;;;11.23;2.67;;;13.00;99.90;;;;;;4946489;28;20042;-89
2022/08/02 00:29:21;;;;;;;17.42;3.38;;;13.10;99.90;;;;;;4931975;28;20050;-88
2022/08/02 00:31:46;;;;;;;9.55;3.15;;;13.10;99.90;;;;;;4962257;28;20046;-89
2022/08/02 00:34:13;;;;;;;9.05;3.13;;;13.20;99.90;;;;;;4964260;28;20391;-89
2022/08/02 00:36:39;;;;;;;8.13;2.67;;;13.20;99.90;;;;;;4947850;28;20381;-89
2022/08/02 00:39:04;;;;;;;7.88;2.40;;;13.20;99.90;;;;;;4947383;28;20043;-88
2022/08/02 00:41:30;;;;;;;6.35;2.42;;;13.20;99.90;;;;;;4963185;28;20043;-88
2022/08/02 00:43:56;;;;;;;6.88;2.70;;;13.20;99.90;;;;;;4962446;28;20112;-88
2022/08/02 00:46:22;;;;;;;6.95;3.10;;;13.20;99.90;;;;;;4965340;28;20050;-89
2022/08/02 00:48:48;;;;;;;9.68;3.47;;;12.60;99.90;;;;;;4965307;28;20047;-89
2022/08/02 00:51:14;;;;;;;10.07;2.05;;;13.20;99.90;;;;;;4950947;28;20046;-88
2022/08/02 00:53:40;;;;;;;10.65;3.80;;;14.10;99.90;;;;;;4933861;28;20047;-88
2022/08/02 00:56:06;;;;;;;12.75;2.78;;;13.10;99.90;;;;;;4950821;28;20456;-88
2022/08/02 00:58:32;;;;;;;9.55;2.58;;;13.80;99.90;;;;;;4934174;28;20071;-89
2022/08/02 01:00:59;;;;;;;13.80;2.67;;;13.10;99.90;;;;;;4965667;28;20081;-88
2022/08/02 01:03:26;;;;;;;7.28;3.15;;;14.20;99.90;;;;;;4950773;28;20053;-88
2022/08/02 01:05:51;;;;;;;12.13;2.22;;;13.20;99.90;;;;;;4949672;28;20050;-88
2022/08/02 01:08:17;;;;;;;6.32;2.13;;;13.10;99.90;;;;;;4966870;28;20410;-88
2022/08/02 01:10:43;;;;;;;6.95;1.90;;;13.10;99.90;;;;;;4933464;28;20103;-89
2022/08/02 01:13:09;;;;;;;4.25;2.00;;;13.10;99.90;;;;;;4950762;28;20043;-88
2022/08/02 01:15:44;;;;;;;8.48;2.67;;;14.30;99.90;;;;;;4933816;28;20049;-88
2022/08/02 01:18:27;;;;;;;5.90;2.20;;;13.00;99.90;;;;;;4965387;28;20039;-88
2022/08/02 01:21:00;;;;;;;7.90;2.92;;;13.00;99.90;;;;;;4967219;28;20050;-88
2022/08/02 01:23:47;;;;;;;5.55;2.35;;;13.00;99.90;;;;;;4965215;28;20043;-87
2022/08/02 01:26:37;;;;;;;6.70;2.50;;;13.10;99.90;;;;;;4966424;28;20090;-88
2022/08/02 01:29:25;;;;;;;9.90;2.75;;;13.00;99.90;;;;;;4950505;28;20051;-88
2022/08/02 01:32:16;;;;;;;13.45;2.78;;;13.00;99.90;;;;;;4949597;28;20055;-88
2022/08/02 01:34:55;;;;;;;5.53;3.05;;;13.00;99.90;;;;;;4950098;28;20141;-88
2022/08/02 01:37:48;;;;;;;8.05;3.05;;;12.90;99.90;;;;;;4950122;28;20571;-88
2022/08/02 01:40:16;;;;;;;;;;;12.90;99.90;;;;;;4965356;28;20517;-88
2022/08/02 01:42:51;;;;;;;7.13;2.55;;;12.90;99.90;;;;;;4999169;28;20012;-88
2022/08/02 01:45:19;;;;;;;9.30;2.63;;;13.20;99.90;;;;;;4949052;28;20047;-88
2022/08/02 01:47:46;;;;;;;7.63;2.67;;;12.80;99.90;;;;;;4965588;28;20047;-88
2022/08/02 01:50:15;;;;;;;8.27;2.55;;;12.80;99.90;;;;;;4949407;28;20063;-88
2022/08/02 01:52:47;;;;;;;5.55;2.72;;;12.80;99.90;;;;;;4948959;28;20043;-88
2022/08/02 01:55:19;;;;;;;6.80;1.75;;;12.80;99.90;;;;;;4950618;28;20417;-88
2022/08/02 01:57:51;;;;;;;7.05;2.38;;;12.70;99.90;;;;;;4964141;28;20046;-88
2022/08/02 02:00:19;;;;;;;5.30;3.00;;;13.00;99.90;;;;;;4949849;28;20047;-88
2022/08/02 02:02:48;;;;;;;9.02;2.92;;;12.80;99.90;;;;;;4965519;28;20081;-88
2022/08/02 02:05:18;;;;;;;7.90;2.80;;;12.80;99.90;;;;;;4965085;28;20043;-88
2022/08/02 02:07:49;;;;;;;9.90;3.28;;;12.80;99.90;;;;;;4950527;28;20351;-88
2022/08/02 02:10:19;;;;;;;13.30;3.22;;;13.40;99.90;;;;;;4948778;28;20455;-88
2022/08/02 02:12:48;;;;;;;6.93;2.72;;;12.80;99.90;;;;;;4966095;28;20042;-87
2022/08/02 02:15:14;;;;;;;7.30;2.70;;;12.80;99.90;;;;;;4964735;28;20042;-89
2022/08/02 02:17:48;;;;;;;8.40;2.95;;;12.80;99.90;;;;;;4965553;28;20047;-89
2022/08/02 02:20:17;;;;;;;11.48;2.92;;;12.70;99.90;;;;;;4966070;28;20130;-88
2022/08/02 02:22:43;;;;;;;6.57;3.30;;;11.70;99.90;;;;;;4933040;28;20035;-88
2022/08/02 02:25:10;;;;;;;7.75;3.22;;;12.80;99.90;;;;;;4965900;28;20046;-88
2022/08/02 02:27:38;;;;;;;7.38;2.97;;;12.70;99.90;;;;;;4933193;28;20112;-89
2022/08/02 02:30:05;;;;;;;8.18;3.22;;;12.80;99.90;;;;;;4966730;28;20129;-88
2022/08/02 02:32:33;;;;;;;9.80;3.85;;;13.80;99.90;;;;;;4965866;28;20405;-89
2022/08/02 02:35:02;;;;;;;7.78;3.33;;;12.70;99.90;;;;;;4981745;28;20031;-88
2022/08/02 02:37:30;;;;;;;10.00;2.83;;;13.00;99.90;;;;;;4967094;28;20038;-91
2022/08/02 02:39:57;;;;;;;10.80;2.78;;;12.80;99.90;;;;;;4949681;28;20046;-89
2022/08/02 02:42:29;;;;;;;15.18;3.50;;;12.70;99.90;;;;;;4967958;28;20100;-90
2022/08/02 02:44:57;;;;;;;7.93;3.70;;;13.90;99.90;;;;;;4965880;28;20137;-90
2022/08/02 02:47:24;;;;;;;11.88;3.40;;;12.70;99.90;;;;;;4952302;28;20085;-90
2022/08/02 02:49:51;;;;;;;7.22;2.80;;;12.70;99.90;;;;;;4953711;28;20051;-90
2022/08/02 02:52:17;;;;;;;7.00;2.80;;;13.30;99.90;;;;;;4990333;28;20051;-90
2022/08/02 02:54:46;;;;;;;6.57;3.42;;;12.70;99.90;;;;;;4969471;28;20062;-90
2022/08/02 02:57:12;;;;;;;9.18;3.60;;;13.90;99.90;;;;;;4958543;28;20069;-90
2022/08/02 02:59:39;;;;;;;10.07;3.28;;;12.70;99.90;;;;;;4960983;28;20050;-90
2022/08/02 03:02:06;;;;;;;15.27;4.45;;;13.30;99.90;;;;;;4959765;28;20039;-90
2022/08/02 03:04:32;;;;;;;8.13;3.60;;;12.70;99.90;;;;;;4973208;28;20049;-90
2022/08/02 03:06:59;;;;;;;7.60;2.70;;;12.70;99.90;;;;;;4940652;28;20380;-88
2022/08/02 03:09:26;;;;;;;7.93;3.53;;;12.70;99.90;;;;;;4950857;28;20046;-88
2022/08/02 03:11:53;;;;;;;11.10;3.50;;;13.50;99.90;;;;;;4947499;28;20046;-87
2022/08/02 03:14:20;;;;;;;7.10;3.17;;;12.70;99.90;;;;;;4967985;28;20027;-88
2022/08/02 03:16:52;;;;;;;7.38;2.97;;;12.80;99.90;;;;;;4956315;28;20277;-88
2022/08/02 03:19:22;;;;;;;10.73;3.03;;;12.70;99.90;;;;;;4952014;28;20038;-88
2022/08/02 03:21:49;;;;;;;6.60;2.40;;;14.00;99.90;;;;;;4950479;28;20138;-88
2022/08/02 03:24:15;;;;;;;5.95;2.55;;;12.80;99.90;;;;;;4964514;28;20051;-88
2022/08/02 03:26:41;;;;;;;8.02;3.00;;;12.70;99.90;;;;;;4963821;28;20089;-89
2022/08/02 03:29:07;;;;;;;8.27;3.47;;;13.50;99.90;;;;;;4948528;28;20101;-88
2022/08/02 03:31:34;;;;;;;11.52;2.95;;;12.70;99.90;;;;;;4947015;28;20053;-88
2022/08/02 03:34:01;;;;;;;7.15;3.33;;;12.70;99.90;;;;;;4949010;28;20050;-88
2022/08/02 03:36:30;;;;;;;11.60;3.05;;;12.70;99.90;;;;;;4931854;28;20054;-88
2022/08/02 03:38:58;;;;;;;4.88;2.50;;;12.70;99.90;;;;;;4964272;28;20134;-88
2022/08/02 03:41:24;;;;;;;6.45;2.70;;;12.60;99.90;;;;;;4948298;28;20039;-87
2022/08/02 03:43:51;;;;;;;5.35;2.30;;;12.60;99.90;;;;;;4947626;28;20042;-88
2022/08/02 03:46:20;;;;;;;7.20;2.63;;;13.00;99.90;;;;;;4948349;28;20637;-88
2022/08/02 03:48:48;;;;;;;10.82;2.55;;;13.60;99.90;;;;;;4946667;28;20554;-88
2022/08/02 03:51:15;;;;;;;10.40;2.88;;;12.70;99.90;;;;;;4948225;28;20054;-88
2022/08/02 03:53:41;;;;;;;7.18;2.65;;;12.70;99.90;;;;;;4932855;28;20151;-89
2022/08/02 03:56:08;;;;;;;13.32;2.83;;;12.70;99.90;;;;;;4967739;28;20047;-91
2022/08/02 03:58:34;;;;;;;8.05;2.60;;;12.70;99.90;;;;;;4967432;28;20513;-88
2022/08/02 04:00:59;;;;;;;11.43;2.78;;;12.80;99.90;;;;;;4950984;28;20051;-88
2022/08/02 04:03:26;;;;;;;5.38;2.88;;;12.30;99.90;;;;;;5000552;28;20587;-89
2022/08/02 04:05:52;;;;;;;7.22;2.65;;;12.70;99.90;;;;;;4963710;28;20135;-88
2022/08/02 04:08:18;;;;;;;5.07;2.40;;;12.70;99.90;;;;;;4948779;28;20093;-88
2022/08/02 04:13:31;;;;;;;9.30;2.90;;;13.60;99.90;;;;;;5021988;28;20531;-87
2022/08/02 04:16:17;;;;;;;9.32;2.85;;;12.70;99.90;;;;;;4963829;28;20039;-88
2022/08/02 04:18:50;;;;;;;9.95;3.38;;;12.80;99.90;;;;;;4962046;28;20043;-89
2022/08/02 04:21:19;;;;;;;6.20;2.75;;;12.80;99.90;;;;;;4963429;28;20433;-89
2022/08/02 04:23:47;;;;;;;9.43;2.38;;;12.80;99.90;;;;;;4962816;28;20149;-88
2022/08/02 04:26:13;;;;;;;9.07;2.80;;;13.60;99.90;;;;;;4931908;28;20054;-89
2022/08/02 04:28:40;;;;;;;12.40;3.65;;;12.80;99.90;;;;;;4947476;28;20042;-88
2022/08/02 04:31:06;;;;;;;10.35;2.70;;;12.80;99.90;;;;;;4946866;28;20147;-88
2022/08/02 04:33:33;;;;;;;11.20;3.15;;;12.80;99.90;;;;;;4963651;28;20047;-88
2022/08/02 04:36:00;;;;;;;8.93;3.00;;;12.90;99.90;;;;;;4961708;28;20039;-88
2022/08/02 04:38:26;;;;;;;6.60;2.60;;;12.90;99.90;;;;;;4948274;28;20496;-88
2022/08/02 04:40:54;;;;;;;8.52;2.88;;;13.00;99.90;;;;;;4946599;28;20578;-88
2022/08/02 04:43:20;;;;;;;8.43;3.35;;;13.00;99.90;;;;;;4932683;28;20046;-95
2022/08/02 04:45:50;;;;;;;12.20;3.00;;;13.00;99.90;;;;;;4948525;28;20047;-94
2022/08/02 04:48:16;;;;;;;8.60;2.53;;;13.80;99.90;;;;;;4964597;28;20149;-95
2022/08/02 04:50:41;;;;;;;14.52;3.10;;;12.50;99.90;;;;;;4965380;28;20490;-93
2022/08/02 04:53:07;;;;;;;6.07;2.45;;;13.20;99.90;;;;;;4963190;28;20046;-93
2022/08/02 04:55:33;;;;;;;7.05;2.70;;;13.20;99.90;;;;;;4949052;28;20078;-90
2022/08/02 04:57:59;;;;;;;8.98;3.65;;;13.30;99.90;;;;;;4963971;28;20043;-91
2022/08/02 05:00:28;;;;;;;8.13;2.83;;;13.30;99.90;;;;;;4948532;28;20145;-88
2022/08/02 05:02:58;;;;;;;6.25;2.33;;;14.50;99.90;;;;;;4947898;28;20042;-91
2022/08/02 05:05:24;;;;;;;13.98;3.38;;;13.40;99.90;;;;;;4946738;28;20134;-93
2022/08/02 05:07:49;;;;;;;9.63;2.78;;;13.50;99.90;;;;;;4947880;28;20046;-88
2022/08/02 05:10:15;;;;;;;9.63;2.83;;;13.60;99.90;;;;;;4945433;28;20515;-87
2022/08/02 05:12:41;;;;;;;13.63;3.30;;;13.70;99.90;;;;;;4947113;28;20550;-89
2022/08/02 05:15:08;;;;;;;13.63;2.55;;;13.70;99.90;;;;;;4945531;28;20035;-85
2022/08/02 05:17:34;;;;;;;7.13;2.75;;;13.80;99.90;;;;;;4995302;28;20055;-87
2022/08/02 05:20:00;;;;;;;9.05;2.60;;;13.90;99.90;;;;;;4946492;28;20047;-88
2022/08/02 05:22:26;;;;;;;10.80;2.67;;;14.00;99.90;;;;;;4930167;28;20047;-88
2022/08/02 05:24:51;;;;;;;7.70;2.47;;;14.10;99.90;;;;;;4947216;28;20130;-88
2022/08/02 05:27:17;;;;;;;8.02;2.17;;;14.20;99.90;;;;;;4929678;28;20054;-89
2022/08/02 05:29:43;;;;;;;6.63;2.15;;;14.30;99.90;;;;;;4948260;28;20043;-90
2022/08/02 05:32:08;;;;;;;10.15;2.20;;;14.40;99.90;;;;;;4931924;28;20039;-88
2022/08/02 05:34:34;;;;;;;6.80;2.72;;;15.60;99.90;;;;;;4950233;28;20054;-89
2022/08/02 05:37:00;;;;;;;3.67;1.92;;;14.60;99.90;;;;;;4949964;28;20085;-90
2022/08/02 05:39:26;;;;;;;5.97;1.92;;;15.90;99.90;;;;;;4966348;28;20073;-91
2022/08/02 05:41:52;;;;;;;9.85;2.70;;;14.90;99.90;;;;;;4951612;28;20485;-92
2022/08/02 05:44:17;;;;;;;12.75;2.30;;;15.10;99.90;;;;;;4949349;28;20093;-94
2022/08/02 05:46:43;;;;;;;5.88;2.53;;;15.10;99.90;;;;;;4935198;28;20038;-91
2022/08/02 05:49:09;;;;;;;12.90;2.63;;;15.20;99.90;;;;;;4932988;28;20195;-88
2022/08/02 05:51:44;;;;;;;12.25;2.03;;;15.30;99.90;;;;;;4950161;28;20054;-92
2022/08/02 05:54:25;;;;;;;7.60;2.50;;;15.50;99.90;;;;;;4949796;28;20058;-90
2022/08/02 05:57:13;;;;;;;7.38;2.35;;;15.30;99.90;;;;;;4949401;28;20078;-91
2022/08/02 06:00:05;;;;;;;8.77;1.90;;;15.40;99.90;;;;;;4950338;28;20046;-91
2022/08/02 06:02:58;;;;;;;11.10;1.65;;;15.40;99.90;;;;;;4949454;28;20469;-90
2022/08/02 06:05:27;;;;;;;7.53;2.00;;;14.60;99.90;;;;;;4949045;28;20176;-91
2022/08/02 06:07:56;;;;;;;4.55;1.70;;;15.60;99.90;;;;;;4950460;28;20133;-91
2022/08/02 06:10:23;;;;;;;12.32;1.73;;;15.60;99.90;;;;;;4949036;28;20080;-92
2022/08/02 06:13:00;;;;;;;12.70;2.78;;;16.20;99.90;;;;;;4951244;28;20147;-91
2022/08/02 06:15:26;;;;;;;8.15;1.67;;;16.50;99.90;;;;;;4949903;28;20494;-93
2022/08/02 06:17:52;;;;;;;6.63;1.85;;;15.90;99.90;;;;;;4950157;28;20063;-94
2022/08/02 06:20:19;;;;;;;7.28;1.67;;;15.70;99.90;;;;;;4935435;28;20050;-92
2022/08/02 06:22:45;;;;;;;8.82;2.05;;;16.20;99.90;;;;;;4949464;28;20054;-92
2022/08/02 06:25:12;;;;;;;8.20;1.75;;;17.00;99.90;;;;;;4950728;28;20042;-92
2022/08/02 06:27:40;;;;;;;4.25;1.38;;;16.40;99.90;;;;;;4933299;28;20046;-91
2022/08/02 06:30:08;;;;;;;9.32;2.67;;;16.50;99.90;;;;;;4935413;28;20051;-91
2022/08/02 06:32:34;;;;;;;7.47;1.80;;;16.70;99.90;;;;;;4934442;28;20058;-91
2022/08/02 06:35:01;;;;;;;8.32;2.10;;;16.80;99.90;;;;;;4934016;28;20461;-89
2022/08/02 06:37:43;;;;;;;9.50;2.90;;;16.90;99.90;;;;;;4950593;28;20043;-89
2022/08/02 06:40:33;;;;;;;5.55;1.95;;;17.00;99.90;;;;;;4949107;28;20091;-91
2022/08/02 06:43:05;;;;;;;4.72;1.77;;;17.10;99.90;;;;;;4949017;28;20047;-87
2022/08/02 06:45:33;;;;;;;8.07;1.67;;;17.20;99.90;;;;;;4948077;28;20058;-86
2022/08/02 06:47:59;;;;;;;6.65;1.30;;;17.30;99.90;;;;;;4964255;28;20454;-87
2022/08/02 06:50:28;;;;;;;7.07;1.58;;;17.40;99.90;;;;;;4948742;28;20066;-87
2022/08/02 06:52:54;;;;;;;11.60;1.60;;;17.40;99.90;;;;;;4931600;28;20505;-88
2022/08/02 06:55:20;;;;;;;6.82;1.40;;;17.50;99.90;;;;;;4981624;28;20043;-87
2022/08/02 06:57:46;;;;;;;5.32;1.10;;;17.60;99.90;;;;;;4931696;28;20050;-88
2022/08/02 07:00:12;;;;;;;11.18;1.80;;;17.70;99.90;;;;;;4933436;28;20058;-87
2022/08/02 07:02:41;;;;;;;7.22;1.27;;;17.80;99.90;;;;;;4948515;28;20065;-89
2022/08/02 07:05:07;;;;;;;10.77;1.52;;;17.90;99.90;;;;;;4932995;28;20053;-89
2022/08/02 07:07:33;;;;;;;6.70;1.30;;;18.00;99.90;;;;;;4933553;28;20109;-88
2022/08/02 07:09:59;;;;;;;3.08;1.08;;;18.10;99.90;;;;;;4947921;28;20061;-88
2022/08/02 07:12:26;;;;;;;8.95;1.50;;;18.30;99.90;;;;;;4933583;28;20047;-88
2022/08/02 07:14:52;;;;;;;5.55;1.20;;;18.40;99.90;;;;;;4979582;28;20050;-89
2022/08/02 07:17:18;;;;;;;9.30;1.00;;;18.60;99.90;;;;;;4933100;28;20046;-88
2022/08/02 07:19:43;;;;;;;3.88;0.90;;;19.50;99.90;;;;;;4948522;28;20043;-88
2022/08/02 07:22:11;;;;;;;11.02;1.23;;;18.70;99.90;;;;;;4980767;28;20486;-84
2022/08/02 07:24:37;;;;;;;4.13;1.88;;;18.70;99.90;;;;;;4964833;28;20055;-87
2022/08/02 07:27:03;;;;;;;6.80;1.40;;;18.80;99.90;;;;;;4963046;28;20061;-88
2022/08/02 07:29:29;;;;;;;4.22;0.93;;;18.90;99.90;;;;;;4964913;28;20137;-87
2022/08/02 07:31:55;;;;;;;5.57;0.93;;;18.90;99.90;;;;;;4931472;28;20047;-88
2022/08/02 07:34:21;;;;;;;2.72;0.85;;;19.00;99.90;;;;;;4933302;28;20096;-87
2022/08/02 07:36:47;;;;;;;8.57;1.00;;;19.10;99.90;;;;;;4963853;28;20371;-88
2022/08/02 07:39:13;;;;;;;3.42;1.02;;;19.20;99.90;;;;;;4964396;28;20108;-88
2022/08/02 07:41:42;;;;;;;7.72;1.20;;;19.30;99.90;;;;;;4948408;28;20134;-88
2022/08/02 07:44:07;;;;;;;3.55;0.88;;;19.40;99.90;;;;;;4946554;28;20058;-87
2022/08/02 07:46:33;;;;;;;3.05;0.98;;;19.50;99.90;;;;;;4948471;28;20047;-86
2022/08/02 07:48:59;;;;;;;7.22;0.77;;;19.60;99.90;;;;;;4962538;28;20051;-87
2022/08/02 07:51:24;;;;;;;6.57;0.95;;;19.70;99.90;;;;;;4949944;28;20058;-87
2022/08/02 07:53:50;;;;;;;6.68;0.70;;;19.80;99.90;;;;;;4931222;28;20079;-88
2022/08/02 07:56:16;;;;;;;2.42;0.70;;;19.90;99.90;;;;;;4947356;28;20062;-88
2022/08/02 07:58:42;;;;;;;1.95;0.57;;;20.00;99.90;;;;;;4948048;28;20073;-88
2022/08/02 08:01:10;;;;;;;5.13;0.75;;;20.10;99.90;;;;;;4946913;28;20074;-88
2022/08/02 08:03:36;;;;;;;1.48;0.50;;;20.30;99.90;;;;;;4947999;28;20141;-89
2022/08/02 08:06:01;;;;;;;4.75;0.47;;;20.40;99.90;;;;;;4946480;28;20069;-87
2022/08/02 08:08:27;;;;;;;3.78;0.70;;;20.50;99.90;;;;;;4964494;28;20113;-88
2022/08/02 08:10:53;;;;;;;5.15;0.60;;;20.70;99.90;;;;;;4962944;28;20043;-88
2022/08/02 08:13:19;;;;;;;3.38;0.70;;;20.80;99.90;;;;;;4948137;28;20593;-88
2022/08/02 08:15:47;;;;;;;2.33;0.50;;;20.90;99.90;;;;;;4947801;28;20065;-87
2022/08/02 08:18:13;;;;;;;2.95;0.80;;;21.00;99.90;;;;;;4962751;28;20043;-87
2022/08/02 08:20:39;;;;;;;2.17;0.47;;;21.10;99.90;;;;;;4932232;28;20035;-86
2022/08/02 08:23:04;;;;;;;1.65;0.38;;;21.20;99.90;;;;;;4930059;28;20108;-86
2022/08/02 08:25:30;;;;;;;2.90;0.50;;;21.20;99.90;;;;;;4932289;28;20054;-88
2022/08/02 08:27:56;;;;;;;2.20;0.52;;;21.30;99.90;;;;;;4962472;28;20472;-87
2022/08/02 08:30:22;;;;;;;2.05;0.60;;;20.60;99.90;;;;;;4964009;28;20043;-88
2022/08/02 08:32:48;;;;;;;1.60;0.50;;;21.50;99.90;;;;;;4963556;28;20053;-88
2022/08/02 08:35:16;;;;;;;1.92;0.60;;;21.50;99.90;;;;;;4931999;28;20065;-88
2022/08/02 08:37:42;;;;;;;9.18;0.77;;;21.60;99.90;;;;;;4963794;28;20490;-87
2022/08/02 08:40:09;;;;;;;1.65;0.40;;;21.60;99.90;;;;;;4961857;28;20082;-88
2022/08/02 08:42:37;;;;;;;1.13;0.40;;;21.60;99.50;;;;;;4964032;28;20520;-87
2022/08/02 08:45:03;;;;;;;2.63;0.60;;;21.70;99.10;;;;;;4946282;28;20608;-87
2022/08/02 08:47:35;;;;;;;4.15;0.47;;;21.80;98.60;;;;;;4963230;28;20099;-87
2022/08/02 08:50:05;;;;;;;9.73;0.50;;;21.90;97.80;;;;;;4946842;28;20058;-88
2022/08/02 08:52:36;;;;;;;1.90;0.40;;;22.00;98.40;;;;;;4962414;28;20134;-88
2022/08/02 08:55:04;;;;;;;1.80;0.40;;;21.70;96.10;;;;;;4947996;28;20130;-88
2022/08/02 08:57:33;;;;;;;2.25;0.50;;;22.20;97.20;;;;;;4945853;28;20568;-88
2022/08/02 09:00:00;;;;;;;2.45;0.60;;;22.30;96.60;;;;;;4963849;28;20043;-90
2022/08/02 09:02:26;;;;;;;7.47;0.50;;;22.40;96.10;;;;;;4946393;28;20133;-88
2022/08/02 09:04:52;;;;;;;1.08;0.30;;;22.40;95.40;;;;;;4946932;28;20050;-88
2022/08/02 09:07:18;;;;;;;1.70;0.52;;;22.50;94.90;;;;;;4932610;28;20046;-87
2022/08/02 09:09:43;;;;;;;2.28;0.50;;;22.70;94.60;;;;;;4949253;28;20180;-87
2022/08/02 09:12:17;;;;;;;2.08;0.60;;;22.80;94.00;;;;;;4950461;28;20082;-88
2022/08/02 09:14:45;;;;;;;1.08;0.30;;;23.00;90.90;;;;;;4965073;28;20101;-88
2022/08/02 09:17:11;;;;;;;4.13;0.50;;;23.00;92.20;;;;;;4967324;28;20508;-87
2022/08/02 09:19:37;;;;;;;2.35;0.63;;;23.20;93.30;;;;;;4949631;28;20053;-87
2022/08/02 09:22:06;;;;;;;5.55;0.68;;;23.30;93.00;;;;;;4965735;28;20132;-88
2022/08/02 09:24:48;;;;;;;2.80;0.65;;;23.40;92.60;;;;;;4950109;28;20046;-88
2022/08/02 09:27:19;;;;;;;2.42;0.45;;;23.40;90.60;;;;;;4965034;28;20054;-88
2022/08/02 09:29:46;;;;;;;2.33;0.52;;;23.50;91.60;;;;;;4966965;28;20100;-88
2022/08/02 09:32:13;;;;;;;4.68;0.47;;;23.60;91.60;;;;;;4966798;28;20139;-89
2022/08/02 09:35:05;;;;;;;2.65;0.60;;;23.70;91.30;;;;;;4966178;28;20135;-87
2022/08/02 09:37:30;;;;;;;3.00;0.60;;;23.80;90.20;;;;;;4952709;28;20065;-87
2022/08/02 09:40:02;;;;;;;4.30;0.57;;;24.00;92.60;;;;;;4964493;28;20055;-88
2022/08/02 09:42:28;;;;;;;1.25;0.45;;;24.10;92.20;;;;;;4950758;28;20042;-87
2022/08/02 09:44:59;;;;;;;2.25;0.30;;;24.20;91.90;;;;;;4949026;28;20039;-88
2022/08/02 09:47:26;;;;;;;0.60;0.43;;;24.30;91.50;;;;;;4950491;28;20133;-87
2022/08/02 09:49:57;;;;;;;8.43;1.13;;;24.30;90.90;;;;;;4949722;28;20051;-87
2022/08/02 09:52:30;;;;;;;2.65;0.80;;;24.30;91.00;;;;;;4933167;28;20134;-87
2022/08/02 09:55:05;;;;;;;2.28;0.57;;;24.40;89.90;;;;;;4966535;28;20069;-88
2022/08/02 09:57:37;;;;;;;5.47;0.60;;;24.20;87.20;;;;;;4964843;28;20062;-87
2022/08/02 10:00:09;;;;;;;0.93;0.50;;;24.10;92.50;;;;;;4951076;28;20068;-87
2022/08/02 10:02:35;;;;;;;;;;;24.10;92.80;;;;;;4967150;28;20532;-86
2022/08/02 10:05:00;;;;;;;4.00;0.63;;;24.10;90.50;;;;;;4982292;28;19969;-86
2022/08/02 10:07:30;;;;;;;6.28;1.13;;;24.10;94.60;;;;;;4951193;28;20042;-86
2022/08/02 10:09:56;;;;;;;0.93;0.40;;;24.20;94.90;;;;;;4966950;28;20436;-86
2022/08/02 10:12:22;;;;;;;2.58;0.70;;;24.40;94.70;;;;;;4952666;28;20394;-86
2022/08/02 10:14:50;;;;;;;3.10;1.00;;;24.50;94.40;;;;;;4968559;28;20046;-86
2022/08/02 10:17:17;;;;;;;2.63;0.93;;;24.50;93.60;;;;;;4967926;28;20304;-88
2022/08/02 10:19:46;;;;;;;4.72;0.90;;;24.60;94.00;;;;;;4933406;28;20108;-86
2022/08/02 10:22:14;;;;;;;3.00;0.80;;;24.60;94.20;;;;;;4981478;28;20051;-87
2022/08/02 10:24:41;;;;;;;2.47;0.77;;;24.70;94.10;;;;;;4965578;28;20080;-86
2022/08/02 10:27:15;;;;;;;2.72;0.75;;;24.90;92.70;;;;;;4963888;28;20490;-87
2022/08/02 10:29:44;;;;;;;10.35;0.93;;;25.00;94.50;;;;;;4950253;28;20443;-86
2022/08/02 10:32:15;;;;;;;3.22;0.80;;;25.30;94.80;;;;;;4964623;28;20043;-87
2022/08/02 10:35:12;;;;;;;4.50;1.05;;;25.50;94.30;;;;;;4965299;28;20060;-87
2022/08/02 10:37:39;;;;;;;2.55;0.90;;;25.50;90.90;;;;;;4949834;28;20043;-88
2022/08/02 10:40:21;;;;;;;5.65;1.20;;;25.50;94.30;;;;;;4963791;28;20051;-87
2022/08/02 10:42:52;;;;;;;2.45;0.82;;;25.50;94.70;;;;;;4949578;28;20482;-87
2022/08/02 10:45:20;;;;;;;3.10;1.10;;;25.50;94.70;;;;;;4948950;28;20058;-87
2022/08/02 10:48:10;;;;;;;3.38;1.20;;;25.50;95.00;;;;;;4948412;28;20047;-86
2022/08/02 10:50:45;;;;;;;1.95;0.85;;;25.50;94.90;;;;;;4949243;28;20065;-89
2022/08/02 10:53:28;;;;;;;1.33;0.85;;;25.60;95.10;;;;;;4964127;28;20077;-87
2022/08/02 10:55:54;;;;;;;;;;;25.80;95.10;;;;;;4949696;28;20043;-88
2022/08/02 10:58:30;;;;;;;4.28;1.50;;;26.00;95.80;;;;;;4964772;28;19929;-88
2022/08/02 11:00:56;;;;;;;2.65;1.25;;;26.30;95.80;;;;;;4949143;28;20095;-88
2022/08/02 11:03:28;;;;;;;5.00;1.85;;;26.40;94.80;;;;;;4949483;28;20080;-88
2022/08/02 11:06:11;;;;;;;2.13;0.93;;;26.50;92.90;;;;;;4964096;28;20090;-87
2022/08/02 11:08:37;;;;;;;;;;;26.50;93.90;;;;;;4967306;28;20066;-88
2022/08/02 11:11:08;;;;;;;2.97;1.13;;;26.50;91.00;;;;;;4948682;28;20301;-88
2022/08/02 11:13:59;;;;;;;3.20;1.20;;;26.40;93.40;;;;;;4948028;28;20082;-88
2022/08/02 11:16:56;;;;;;;1.73;1.33;;;26.40;91.40;;;;;;4988126;28;20058;-87
2022/08/02 11:19:24;;;;;;;7.35;0.90;;;26.40;89.80;;;;;;4963908;28;20043;-88
2022/08/02 11:22:18;;;;;;;8.10;1.55;;;26.40;92.00;;;;;;4965223;28;20370;-89
2022/08/02 11:24:46;;;;;;;2.28;1.30;;;26.40;91.10;;;;;;4965124;28;20086;-89
2022/08/02 11:27:19;;;;;;;2.70;0.90;;;26.30;92.20;;;;;;4947475;28;20480;-88
2022/08/02 11:29:48;;;;;;;2.80;1.10;;;26.30;92.40;;;;;;4981175;28;20477;-88
2022/08/02 11:32:21;;;;;;;3.05;1.20;;;26.30;93.00;;;;;;4964364;28;20413;-90
2022/08/02 11:34:52;;;;;;;4.53;1.35;;;26.30;92.20;;;;;;4964165;28;20050;-88
2022/08/02 11:37:37;;;;;;;3.95;1.20;;;26.30;92.70;;;;;;4964823;28;20052;-88
2022/08/02 11:40:08;;;;;;;4.13;1.70;;;26.40;92.50;;;;;;4962989;28;20092;-88
2022/08/02 11:42:37;;;;;;;5.73;1.53;;;26.50;93.60;;;;;;4965391;28;20054;-89
2022/08/02 11:45:06;;;;;;;3.63;1.33;;;26.50;92.90;;;;;;4947583;28;20297;-89
2022/08/02 11:47:32;;;;;;;3.13;1.30;;;26.60;93.10;;;;;;4932732;28;20038;-89
2022/08/02 11:50:09;;;;;;;4.35;1.05;;;26.60;93.40;;;;;;4948038;28;20050;-88
2022/08/02 11:52:36;;;;;;;3.70;1.27;;;26.70;93.60;;;;;;4962995;28;20055;-88
2022/08/02 11:55:03;;;;;;;6.28;1.65;;;26.70;93.90;;;;;;4948562;28;20130;-89
2022/08/02 11:57:29;;;;;;;2.15;1.23;;;26.70;94.40;;;;;;4962794;28;20043;-88
2022/08/02 11:59:56;;;;;;;2.85;1.42;;;26.70;94.40;;;;;;4948296;28;20050;-88
2022/08/02 12:02:27;;;;;;;4.70;1.35;;;26.70;94.70;;;;;;4963602;28;20047;-88
2022/08/02 12:05:03;;;;;;;2.23;0.80;;;26.70;94.10;;;;;;4947744;28;20406;-87
2022/08/02 12:07:35;;;;;;;2.17;1.27;;;26.80;94.10;;;;;;4964281;28;20047;-88
2022/08/02 12:10:06;;;;;;;2.17;0.85;;;26.90;94.90;;;;;;4946972;28;20447;-88
2022/08/02 12:12:32;;;;;;;3.97;1.73;;;26.90;94.00;;;;;;4964934;28;20395;-87
2022/08/02 12:14:57;;;;;;;2.20;1.27;;;26.90;93.80;;;;;;4931664;28;20046;-87
2022/08/02 12:20:10;;;;;;;8.20;1.42;;;26.70;94.50;;;;;;4964732;28;20191;-86
2022/08/02 12:22:37;;;;;;;2.47;1.20;;;26.60;95.00;;;;;;4930575;28;20054;-84
2022/08/02 12:25:17;;;;;;;3.10;1.60;;;26.50;95.00;;;;;;4964285;28;20094;-84
2022/08/02 12:27:42;;;;;;;4.95;1.55;;;26.40;95.60;;;;;;4946776;28;20138;-85
2022/08/02 12:30:14;;;;;;;4.18;2.42;;;26.40;96.30;;;;;;4963966;28;20141;-85
2022/08/02 12:32:40;;;;;;;3.45;2.20;;;26.30;96.20;;;;;;4947878;28;20051;-86
2022/08/02 12:35:08;;;;;;;3.03;1.85;;;26.30;96.70;;;;;;4978750;28;20137;-85
2022/08/02 12:37:36;;;;;;;4.75;2.78;;;26.30;97.30;;;;;;4947618;28;20043;-85
2022/08/02 12:40:25;;;;;;;6.15;2.85;;;26.30;97.50;;;;;;4945867;28;20086;-87
2022/08/02 12:42:55;;;;;;;4.78;2.53;;;26.20;97.40;;;;;;4966375;28;20047;-85
2022/08/02 12:45:21;;;;;;;5.03;3.45;;;26.10;98.00;;;;;;4967702;28;20398;-87
2022/08/02 12:47:52;;;;;;;3.88;2.72;;;26.00;98.30;;;;;;4950141;28;20551;-87
2022/08/02 12:50:28;;;;;;;4.60;3.05;;;25.80;98.80;;;;;;4953209;28;20098;-88
2022/08/02 12:53:13;;;;;;;7.03;3.22;;;25.70;99.10;;;;;;4966504;28;20098;-88
2022/08/02 12:55:54;;;;;;;4.30;2.50;;;25.10;99.50;;;;;;4967333;28;20046;-88
2022/08/02 12:58:19;;;;;;;3.72;1.73;;;25.50;99.90;;;;;;4967026;28;20110;-87
2022/08/02 13:00:54;;;;;;;7.20;2.10;;;25.40;99.90;;;;;;4965460;28;20117;-87